createdAt,value
2022-11-01T00:01:59.586Z,12.14
2022-11-01T00:04:29.161Z,12.12
2022-11-01T00:06:57.929Z,12.07
2022-11-01T00:09:26.212Z,11.99
2022-11-01T00:11:54.335Z,11.91
2022-11-01T00:14:22.860Z,11.89
2022-11-01T00:16:51.300Z,11.85
2022-11-01T00:19:19.615Z,11.82
2022-11-01T00:21:49.136Z,11.91
2022-11-01T00:24:17.225Z,11.87
2022-11-01T00:26:45.549Z,11.86
2022-11-01T00:29:14.312Z,11.92
2022-11-01T00:31:42.310Z,12.03
2022-11-01T00:34:10.449Z,12.10
2022-11-01T00:36:38.460Z,12.13
2022-11-01T00:39:08.272Z,12.22
2022-11-01T00:41:36.926Z,12.25
2022-11-01T00:44:05.050Z,12.23
2022-11-01T00:46:33.531Z,12.23
2022-11-01T00:49:01.809Z,12.21
2022-11-01T00:51:30.187Z,12.23
2022-11-01T00:53:58.173Z,12.27
2022-11-01T00:56:27.631Z,12.29
2022-11-01T00:58:55.818Z,12.31
2022-11-01T01:01:24.058Z,12.37
2022-11-01T01:03:52.194Z,12.45
2022-11-01T01:06:20.154Z,12.51
2022-11-01T01:08:48.227Z,12.58
2022-11-01T01:11:16.890Z,12.65
2022-11-01T01:13:46.338Z,12.71
2022-11-01T01:16:14.446Z,12.73
2022-11-01T01:18:42.446Z,12.80
2022-11-01T01:21:10.477Z,12.86
2022-11-01T01:23:38.629Z,12.91
2022-11-01T01:26:08.395Z,12.95
2022-11-01T01:28:41.756Z,12.95
2022-11-01T01:31:15.618Z,12.94
2022-11-01T01:33:43.672Z,12.97
2022-11-01T01:36:12.448Z,13.02
2022-11-01T01:38:40.466Z,13.05
2022-11-01T01:41:25.669Z,13.09
2022-11-01T01:43:53.751Z,13.12
2022-11-01T01:46:23.316Z,13.15
2022-11-01T01:48:54.627Z,13.19
2022-11-01T01:51:26.063Z,13.23
2022-11-01T01:53:56.077Z,13.26
2022-11-01T01:56:28.511Z,13.27
2022-11-01T01:59:01.363Z,13.32
2022-11-01T02:01:31.940Z,13.31
2022-11-01T02:04:00.253Z,13.33
2022-11-01T02:06:28.536Z,13.35
2022-11-01T02:08:59.372Z,13.38
2022-11-01T02:11:27.522Z,13.42
2022-11-01T02:13:55.989Z,13.46
2022-11-01T02:16:39.657Z,13.50
2022-11-01T02:19:43.573Z,13.52
2022-11-01T02:22:16.014Z,13.51
2022-11-01T02:25:04.574Z,13.49
2022-11-01T02:27:44.421Z,13.47
2022-11-01T02:30:15.950Z,13.47
2022-11-01T02:33:11.308Z,13.46
2022-11-01T02:35:49.747Z,13.46
2022-11-01T02:38:26.296Z,13.43
2022-11-01T02:41:04.316Z,13.44
2022-11-01T02:43:38.179Z,13.47
2022-11-01T02:46:21.444Z,13.51
2022-11-01T02:48:51.788Z,13.53
2022-11-01T02:51:22.581Z,13.56
2022-11-01T02:53:50.707Z,13.56
2022-11-01T02:56:20.269Z,13.54
2022-11-01T02:58:52.859Z,13.56
2022-11-01T03:01:26.153Z,13.59
2022-11-01T03:03:59.089Z,13.59
2022-11-01T03:06:34.431Z,13.64
2022-11-01T03:09:05.431Z,13.68
2022-11-01T03:11:40.469Z,13.67
2022-11-01T03:14:17.017Z,13.68
2022-11-01T03:16:54.165Z,13.72
2022-11-01T03:19:36.326Z,13.74
2022-11-01T03:22:11.176Z,13.72
2022-11-01T03:24:46.404Z,13.72
2022-11-01T03:27:19.702Z,13.76
2022-11-01T03:29:57.130Z,13.79
2022-11-01T03:32:29.630Z,13.78
2022-11-01T03:35:01.478Z,13.76
2022-11-01T03:37:32.674Z,13.74
2022-11-01T03:40:05.441Z,13.72
2022-11-01T03:42:35.180Z,13.69
2022-11-01T03:45:08.386Z,13.62
2022-11-01T03:47:37.520Z,13.55
2022-11-01T03:50:18.280Z,13.50
2022-11-01T03:52:47.474Z,13.47
2022-11-01T03:55:19.413Z,13.44
2022-11-01T03:57:48.240Z,13.42
2022-11-01T04:00:17.917Z,13.41
2022-11-01T04:02:46.622Z,13.39
2022-11-01T04:05:17.573Z,13.37
2022-11-01T04:07:45.874Z,13.37
2022-11-01T04:10:14.894Z,13.33
2022-11-01T04:12:46.864Z,13.27
2022-11-01T04:15:33.133Z,13.23
2022-11-01T04:18:30.157Z,13.19
2022-11-01T04:21:02.456Z,13.15
2022-11-01T04:23:30.686Z,13.15
2022-11-01T04:25:58.772Z,13.13
2022-11-01T04:28:26.847Z,13.17
2022-11-01T04:30:55.757Z,13.22
2022-11-01T04:33:23.819Z,13.28
2022-11-01T04:35:51.946Z,13.32
2022-11-01T04:38:21.551Z,13.34
2022-11-01T04:40:49.603Z,13.38
2022-11-01T04:43:17.634Z,13.42
2022-11-01T04:45:45.818Z,13.47
2022-11-01T04:48:17.155Z,13.50
2022-11-01T04:50:46.052Z,13.55
2022-11-01T04:53:14.224Z,13.59
2022-11-01T04:55:43.731Z,13.60
2022-11-01T04:58:12.026Z,13.60
2022-11-01T05:00:40.222Z,13.60
2022-11-01T05:03:09.476Z,13.60
2022-11-01T05:05:39.146Z,13.58
2022-11-01T05:08:09.241Z,13.54
2022-11-01T05:10:39.072Z,13.52
2022-11-01T05:13:09.115Z,13.48
2022-11-01T05:15:40.271Z,13.47
2022-11-01T05:18:11.935Z,13.45
2022-11-01T05:20:40.018Z,13.42
2022-11-01T05:23:08.244Z,13.39
2022-11-01T05:25:38.194Z,13.39
2022-11-01T05:28:10.052Z,13.37
2022-11-01T05:30:41.863Z,13.36
2022-11-01T05:33:11.984Z,13.36
2022-11-01T05:35:40.037Z,13.33
2022-11-01T05:38:14.738Z,13.31
2022-11-01T05:40:43.120Z,13.29
2022-11-01T05:43:12.575Z,13.28
2022-11-01T05:45:40.625Z,13.26
2022-11-01T05:48:08.664Z,13.28
2022-11-01T05:50:36.727Z,13.25
2022-11-01T05:53:08.552Z,13.24
2022-11-01T05:55:36.980Z,13.24
2022-11-01T05:58:05.726Z,13.23
2022-11-01T06:00:35.882Z,13.21
2022-11-01T06:03:04.837Z,13.19
2022-11-01T06:05:33.947Z,13.17
2022-11-01T06:08:02.967Z,13.17
2022-11-01T06:10:31.384Z,13.16
2022-11-01T06:13:00.575Z,13.15
2022-11-01T06:15:28.821Z,13.15
2022-11-01T06:17:58.893Z,13.13
2022-11-01T06:20:27.517Z,13.11
2022-11-01T06:22:55.523Z,13.09
2022-11-01T06:25:23.747Z,13.05
2022-11-01T06:27:52.011Z,13.03
2022-11-01T06:30:20.096Z,13.00
2022-11-01T06:32:48.210Z,12.96
2022-11-01T06:35:18.932Z,12.95
2022-11-01T06:37:47.650Z,12.92
2022-11-01T06:40:15.780Z,12.92
2022-11-01T06:42:46.594Z,12.89
2022-11-01T06:45:16.231Z,12.88
2022-11-01T06:47:49.392Z,12.85
2022-11-01T06:50:19.354Z,12.80
2022-11-01T06:52:47.575Z,12.74
2022-11-01T06:55:17.660Z,12.69
2022-11-01T06:57:55.647Z,12.68
2022-11-01T07:00:24.590Z,12.68
2022-11-01T07:02:59.661Z,12.68
2022-11-01T07:05:32.844Z,12.64
2022-11-01T07:08:05.595Z,12.59
2022-11-01T07:10:34.094Z,12.59
2022-11-01T07:13:03.437Z,12.58
2022-11-01T07:15:31.943Z,12.54
2022-11-01T07:18:01.301Z,12.49
2022-11-01T07:20:34.701Z,12.45
2022-11-01T07:23:04.980Z,12.42
2022-11-01T07:25:35.560Z,12.39
2022-11-01T07:28:03.750Z,12.36
2022-11-01T07:30:32.030Z,12.37
2022-11-01T07:33:02.317Z,12.39
2022-11-01T07:35:32.450Z,12.41
2022-11-01T07:38:03.845Z,12.44
2022-11-01T07:40:34.706Z,12.48
2022-11-01T07:43:03.101Z,12.52
2022-11-01T07:45:33.816Z,12.56
2022-11-01T07:48:05.604Z,12.61
2022-11-01T07:50:36.138Z,12.64
2022-11-01T07:53:08.393Z,12.69
2022-11-01T07:55:37.741Z,12.72
2022-11-01T07:58:07.018Z,12.75
2022-11-01T08:03:04.310Z,12.78
2022-11-01T08:05:35.027Z,12.79
2022-11-01T08:08:04.157Z,12.79
2022-11-01T08:10:33.433Z,12.81
2022-11-01T08:13:03.438Z,12.75
2022-11-01T08:15:31.706Z,12.74
2022-11-01T08:18:00.670Z,12.72
2022-11-01T08:20:30.073Z,12.68
2022-11-01T08:23:00.126Z,12.64
2022-11-01T08:25:28.441Z,12.60
2022-11-01T08:27:56.495Z,12.57
2022-11-01T08:30:24.451Z,12.54
2022-11-01T08:32:59.362Z,12.49
2022-11-01T08:35:27.966Z,12.44
2022-11-01T08:37:56.714Z,12.37
2022-11-01T08:40:26.525Z,12.32
2022-11-01T08:42:54.539Z,12.29
2022-11-01T08:45:23.013Z,12.25
2022-11-01T08:47:51.096Z,12.22
2022-11-01T08:50:19.375Z,12.23
2022-11-01T08:52:47.394Z,12.26
2022-11-01T08:55:15.399Z,12.28
2022-11-01T08:57:44.819Z,12.30
2022-11-01T09:00:16.454Z,12.29
2022-11-01T09:02:44.391Z,12.26
2022-11-01T09:05:12.440Z,12.23
2022-11-01T09:07:40.607Z,12.19
2022-11-01T09:10:09.717Z,12.17
2022-11-01T09:12:38.301Z,12.12
2022-11-01T09:15:08.499Z,12.11
2022-11-01T09:17:36.664Z,12.12
2022-11-01T09:20:06.071Z,12.09
2022-11-01T09:22:34.063Z,12.08
2022-11-01T09:25:02.068Z,12.05
2022-11-01T09:27:29.993Z,12.06
2022-11-01T09:29:57.996Z,12.10
2022-11-01T09:32:29.092Z,12.16
2022-11-01T09:34:57.045Z,12.25
2022-11-01T09:37:25.157Z,12.36
2022-11-01T09:39:53.183Z,12.45
2022-11-01T09:42:26.417Z,12.50
2022-11-01T09:44:57.698Z,12.53
2022-11-01T09:47:30.967Z,12.57
2022-11-01T09:50:05.982Z,12.65
2022-11-01T09:52:34.103Z,12.72
2022-11-01T09:55:02.030Z,12.77
2022-11-01T09:57:36.361Z,12.81
2022-11-01T10:00:09.025Z,12.85
2022-11-01T10:03:20.283Z,12.86
2022-11-01T10:05:55.831Z,12.85
2022-11-01T10:08:45.530Z,12.89
2022-11-01T10:11:28.738Z,12.93
2022-11-01T10:14:06.729Z,12.95
2022-11-01T10:16:37.853Z,12.95
2022-11-01T10:19:14.828Z,12.99
2022-11-01T10:21:46.857Z,13.05
2022-11-01T10:24:25.294Z,13.10
2022-11-01T10:27:00.645Z,13.18
2022-11-01T10:29:35.173Z,13.25
2022-11-01T10:32:06.122Z,13.29
2022-11-01T10:34:40.595Z,13.33
2022-11-01T10:37:22.424Z,13.35
2022-11-01T10:39:58.910Z,13.32
2022-11-01T10:42:30.945Z,13.28
2022-11-01T10:45:02.101Z,13.27
2022-11-01T10:47:30.678Z,13.24
2022-11-01T10:50:06.581Z,13.29
2022-11-01T10:52:45.978Z,13.37
2022-11-01T10:55:17.039Z,13.49
2022-11-01T10:57:50.685Z,13.61
2022-11-01T11:00:21.992Z,13.82
2022-11-01T11:02:54.386Z,13.95
2022-11-01T11:05:25.583Z,14.01
2022-11-01T11:07:53.750Z,14.05
2022-11-01T11:10:24.960Z,14.12
2022-11-01T11:12:59.189Z,14.11
2022-11-01T11:15:37.319Z,14.20
2022-11-01T11:18:09.763Z,14.32
2022-11-01T11:20:39.204Z,14.32
2022-11-01T11:23:12.904Z,14.18
2022-11-01T11:25:43.097Z,14.06
2022-11-01T11:28:25.668Z,13.90
2022-11-01T11:30:54.569Z,13.79
2022-11-01T11:33:23.699Z,13.66
2022-11-01T11:35:58.937Z,13.56
2022-11-01T11:38:44.616Z,13.47
2022-11-01T11:41:14.468Z,13.46
2022-11-01T11:43:42.697Z,13.42
2022-11-01T11:46:21.619Z,13.37
2022-11-01T11:48:52.399Z,13.21
2022-11-01T11:51:22.396Z,12.85
2022-11-01T11:54:13.504Z,12.69
2022-11-01T11:56:41.779Z,12.60
2022-11-01T11:59:22.563Z,12.65
2022-11-01T12:01:50.843Z,12.77
2022-11-01T12:04:21.053Z,12.93
2022-11-01T12:06:50.668Z,13.09
2022-11-01T12:09:45.331Z,13.34
2022-11-01T12:12:21.123Z,13.50
2022-11-01T12:14:52.088Z,13.58
2022-11-01T12:17:45.938Z,13.56
2022-11-01T12:20:17.268Z,13.63
2022-11-01T12:22:51.825Z,13.77
2022-11-01T12:25:23.642Z,13.82
2022-11-01T12:28:02.215Z,13.98
2022-11-01T12:30:34.739Z,14.06
2022-11-01T12:33:10.751Z,14.20
2022-11-01T12:35:44.107Z,14.34
2022-11-01T12:38:35.032Z,14.38
2022-11-01T12:41:14.925Z,14.42
2022-11-01T12:43:56.589Z,14.45
2022-11-01T12:46:34.001Z,14.39
2022-11-01T12:49:06.617Z,14.40
2022-11-01T12:51:38.847Z,14.42
2022-11-01T12:54:16.076Z,14.33
2022-11-01T12:56:44.134Z,14.13
2022-11-01T12:59:15.179Z,13.94
2022-11-01T13:01:53.080Z,13.74
2022-11-01T13:04:31.918Z,13.58
2022-11-01T13:07:15.738Z,13.38
2022-11-01T13:09:55.629Z,12.87
2022-11-01T13:12:32.368Z,12.41
2022-11-01T13:15:08.237Z,12.08
2022-11-01T13:17:45.211Z,12.01
2022-11-01T13:20:36.724Z,11.91
2022-11-01T13:23:16.778Z,11.84
2022-11-01T13:25:53.060Z,11.93
2022-11-01T13:28:43.336Z,12.36
2022-11-01T13:31:24.205Z,12.60
2022-11-01T13:33:59.909Z,12.68
2022-11-01T13:36:38.084Z,12.68
2022-11-01T13:39:18.056Z,12.60
2022-11-01T13:41:54.589Z,12.56
2022-11-01T13:44:25.937Z,12.56
2022-11-01T13:47:33.687Z,12.56
2022-11-01T13:50:22.323Z,12.58
2022-11-01T13:52:58.100Z,12.25
2022-11-01T13:55:36.377Z,11.73
2022-11-01T13:58:06.942Z,11.41
2022-11-01T14:00:41.468Z,11.05
2022-11-01T14:03:36.998Z,10.84
2022-11-01T14:09:29.143Z,11.28
2022-11-01T14:11:59.241Z,11.60
2022-11-01T14:14:54.252Z,11.77
2022-11-01T14:18:03.443Z,11.71
2022-11-01T14:20:53.242Z,11.65
2022-11-01T14:24:01.908Z,11.59
2022-11-01T14:26:47.850Z,11.57
2022-11-01T14:29:16.642Z,11.58
2022-11-01T14:31:49.135Z,11.65
2022-11-01T14:34:36.240Z,11.72
2022-11-01T14:37:15.488Z,11.77
2022-11-01T14:39:52.693Z,11.79
2022-11-01T14:42:27.185Z,11.84
2022-11-01T14:45:00.061Z,11.85
2022-11-01T14:47:35.544Z,11.89
2022-11-01T14:50:14.433Z,11.88
2022-11-01T14:52:47.071Z,12.06
2022-11-01T14:55:20.344Z,12.20
2022-11-01T14:57:49.135Z,12.38
2022-11-01T15:00:26.761Z,12.86
2022-11-01T15:02:57.097Z,13.29
2022-11-01T15:05:25.400Z,13.64
2022-11-01T15:07:55.170Z,13.89
2022-11-01T15:10:23.991Z,14.08
2022-11-01T15:12:54.849Z,14.21
2022-11-01T15:15:26.004Z,14.25
2022-11-01T15:17:58.726Z,14.25
2022-11-01T15:20:30.149Z,14.18
2022-11-01T15:23:00.529Z,13.92
2022-11-01T15:25:28.606Z,13.53
2022-11-01T15:27:58.215Z,13.16
2022-11-01T15:30:28.364Z,12.84
2022-11-01T15:33:16.690Z,12.59
2022-11-01T15:35:44.763Z,12.38
2022-11-01T15:38:20.888Z,12.25
2022-11-01T15:40:50.361Z,12.14
2022-11-01T15:43:20.775Z,12.05
2022-11-01T15:45:53.269Z,11.99
2022-11-01T15:48:27.254Z,11.96
2022-11-01T15:50:58.619Z,11.88
2022-11-01T15:54:19.142Z,11.35
2022-11-01T15:56:54.216Z,10.58
2022-11-01T15:59:29.356Z,10.28
2022-11-01T16:02:00.883Z,10.16
2022-11-01T16:04:41.053Z,10.18
2022-11-01T16:07:12.560Z,10.20
2022-11-01T16:09:45.230Z,10.24
2022-11-01T16:12:19.207Z,10.25
2022-11-01T16:14:53.551Z,10.27
2022-11-01T16:17:31.705Z,10.31
2022-11-01T16:20:04.800Z,10.37
2022-11-01T16:22:39.132Z,10.43
2022-11-01T16:25:22.435Z,10.51
2022-11-01T16:28:00.291Z,10.57
2022-11-01T16:30:53.143Z,10.65
2022-11-01T16:33:31.112Z,10.71
2022-11-01T16:36:03.203Z,10.76
2022-11-01T16:38:43.464Z,10.82
2022-11-01T16:41:20.490Z,10.87
2022-11-01T16:43:49.280Z,10.88
2022-11-01T16:46:17.553Z,10.87
2022-11-01T16:49:16.687Z,10.86
2022-11-01T16:51:46.096Z,10.91
2022-11-01T16:54:14.136Z,10.94
2022-11-01T16:56:45.866Z,10.94
2022-11-01T16:59:33.037Z,10.95
2022-11-01T17:02:15.322Z,10.89
2022-11-01T17:04:44.032Z,10.87
2022-11-01T17:07:13.529Z,10.83
2022-11-01T17:09:41.489Z,10.77
2022-11-01T17:12:09.433Z,10.66
2022-11-01T17:14:38.002Z,10.60
2022-11-01T17:17:08.825Z,10.58
2022-11-01T17:19:42.091Z,10.61
2022-11-01T17:22:19.201Z,10.62
2022-11-01T17:24:47.522Z,10.66
2022-11-01T17:27:15.869Z,10.71
2022-11-01T17:29:44.239Z,10.60
2022-11-01T17:32:12.584Z,10.47
2022-11-01T17:34:40.672Z,10.27
2022-11-01T17:37:13.602Z,10.10
2022-11-01T17:39:43.033Z,9.99
2022-11-01T17:42:11.802Z,9.97
2022-11-01T17:44:39.763Z,9.95
2022-11-01T17:47:07.708Z,9.95
2022-11-01T17:49:35.823Z,9.95
2022-11-01T17:52:04.427Z,9.98
2022-11-01T17:54:32.397Z,10.02
2022-11-01T17:57:01.880Z,10.04
2022-11-01T17:59:31.053Z,10.09
2022-11-01T18:01:59.061Z,10.17
2022-11-01T18:04:27.085Z,10.30
2022-11-01T18:06:56.851Z,10.47
2022-11-01T18:09:27.190Z,10.54
2022-11-01T18:12:05.602Z,10.57
2022-11-01T18:14:49.346Z,10.65
2022-11-01T18:17:35.251Z,10.80
2022-11-01T18:20:31.708Z,10.87
2022-11-01T18:23:04.661Z,10.85
2022-11-01T18:25:40.377Z,10.79
2022-11-01T18:28:14.288Z,10.76
2022-11-01T18:30:45.112Z,10.71
2022-11-01T18:33:23.233Z,10.69
2022-11-01T18:35:57.018Z,10.71
2022-11-01T18:38:30.648Z,10.84
2022-11-01T18:41:01.128Z,11.00
2022-11-01T18:43:33.503Z,11.13
2022-11-01T18:46:23.790Z,11.22
2022-11-01T18:48:59.632Z,11.32
2022-11-01T18:51:30.226Z,11.42
2022-11-01T18:54:20.949Z,11.46
2022-11-01T18:56:52.210Z,11.48
2022-11-01T18:59:29.385Z,11.19
2022-11-01T19:02:01.813Z,10.88
2022-11-01T19:04:32.539Z,10.60
2022-11-01T19:07:09.810Z,10.45
2022-11-01T19:09:39.470Z,10.38
2022-11-01T19:12:15.854Z,10.40
2022-11-01T19:18:26.027Z,10.51
2022-11-01T19:20:55.536Z,10.57
2022-11-01T19:23:30.949Z,10.68
2022-11-01T19:25:59.146Z,10.80
2022-11-01T19:28:31.536Z,10.89
2022-11-01T19:31:15.050Z,10.93
2022-11-01T19:33:47.189Z,10.98
2022-11-01T19:36:19.214Z,11.04
2022-11-01T19:38:48.174Z,11.10
2022-11-01T19:41:19.951Z,11.15
2022-11-01T19:43:48.018Z,11.18
2022-11-01T19:46:22.353Z,11.26
2022-11-01T19:48:54.200Z,11.33
2022-11-01T19:51:24.865Z,11.38
2022-11-01T19:53:53.835Z,11.40
2022-11-01T19:56:23.982Z,11.41
2022-11-01T19:58:54.517Z,11.40
2022-11-01T20:01:35.191Z,11.30
2022-11-01T20:04:11.780Z,11.24
2022-11-01T20:06:46.716Z,11.12
2022-11-01T20:09:20.426Z,11.08
2022-11-01T20:11:48.592Z,11.17
2022-11-01T20:14:17.073Z,11.25
2022-11-01T20:16:46.292Z,11.31
2022-11-01T20:19:17.718Z,11.39
2022-11-01T20:21:46.548Z,11.44
2022-11-01T20:24:15.583Z,11.50
2022-11-01T20:26:43.996Z,11.58
2022-11-01T20:29:12.609Z,11.66
2022-11-01T20:31:40.847Z,11.60
2022-11-01T20:34:09.541Z,11.55
2022-11-01T20:36:39.660Z,11.54
2022-11-01T20:39:10.354Z,11.56
2022-11-01T20:41:49.635Z,11.59
2022-11-01T20:44:20.393Z,11.64
2022-11-01T20:46:48.499Z,11.67
2022-11-01T20:49:16.454Z,11.67
2022-11-01T20:51:46.135Z,11.68
2022-11-01T20:54:17.793Z,11.69
2022-11-01T20:56:46.024Z,11.70
2022-11-01T20:59:15.970Z,11.73
2022-11-01T21:01:47.411Z,11.75
2022-11-01T21:04:19.387Z,11.59
2022-11-01T21:06:49.755Z,11.35
2022-11-01T21:09:31.927Z,11.13
2022-11-01T21:12:00.137Z,11.02
2022-11-01T21:14:37.363Z,10.95
2022-11-01T21:17:16.112Z,10.94
2022-11-01T21:19:45.405Z,11.00
2022-11-01T21:22:20.673Z,11.05
2022-11-01T21:24:50.345Z,11.02
2022-11-01T21:27:24.891Z,10.80
2022-11-01T21:29:55.820Z,10.67
2022-11-01T21:32:30.103Z,10.63
2022-11-01T21:34:59.172Z,10.70
2022-11-01T21:37:31.084Z,10.73
2022-11-01T21:40:05.965Z,10.73
2022-11-01T21:42:39.103Z,10.85
2022-11-01T21:45:28.571Z,11.03
2022-11-01T21:48:01.336Z,11.12
2022-11-01T21:50:29.660Z,11.18
2022-11-01T21:52:59.083Z,11.21
2022-11-01T21:55:27.100Z,11.27
2022-11-01T21:57:55.294Z,11.34
2022-11-01T22:00:23.273Z,11.43
2022-11-01T22:02:51.316Z,11.51
2022-11-01T22:05:19.334Z,11.57
2022-11-01T22:07:47.239Z,11.67
2022-11-01T22:10:16.859Z,11.72
2022-11-01T22:12:44.904Z,11.76
2022-11-01T22:15:14.254Z,11.50
2022-11-01T22:17:42.535Z,11.03
2022-11-01T22:20:10.975Z,10.72
2022-11-01T22:22:39.137Z,10.60
2022-11-01T22:25:07.922Z,10.63
2022-11-01T22:27:37.645Z,10.56
2022-11-01T22:30:06.495Z,10.36
2022-11-01T22:32:34.558Z,10.27
2022-11-01T22:35:02.531Z,10.32
2022-11-01T22:37:35.407Z,10.26
2022-11-01T22:40:06.427Z,10.18
2022-11-01T22:42:34.386Z,10.12
2022-11-01T22:45:04.042Z,10.13
2022-11-01T22:47:32.152Z,10.20
2022-11-01T22:50:03.844Z,10.25
2022-11-01T22:52:36.406Z,10.31
2022-11-01T22:55:19.386Z,10.38
2022-11-01T22:57:50.746Z,10.51
2022-11-01T23:00:32.408Z,10.59
2022-11-01T23:03:03.524Z,10.69
2022-11-01T23:05:32.021Z,10.77
2022-11-01T23:08:11.374Z,10.81
2022-11-01T23:10:39.343Z,10.88
2022-11-01T23:13:35.267Z,10.97
2022-11-01T23:16:21.513Z,11.07
2022-11-01T23:18:49.941Z,11.07
2022-11-01T23:21:18.741Z,11.09
2022-11-01T23:23:49.067Z,11.10
2022-11-01T23:26:19.038Z,11.16
2022-11-01T23:28:51.012Z,11.17
2022-11-01T23:31:21.811Z,11.21
2022-11-01T23:33:51.193Z,11.24
2022-11-01T23:36:21.502Z,11.27
2022-11-01T23:38:53.208Z,11.30
2022-11-01T23:41:23.884Z,11.35
2022-11-01T23:43:54.814Z,11.40
2022-11-01T23:46:24.627Z,11.42
2022-11-01T23:48:59.388Z,11.41
2022-11-01T23:51:27.537Z,11.41
2022-11-01T23:53:57.322Z,11.39
2022-11-01T23:56:25.600Z,11.38
2022-11-01T23:58:57.788Z,11.38
